Main page
METAR-TAF:

METAR-TAF

Airports :

Zaragoza Airport

Zaragoza, Spain

latitude: 41-40N, longitude: 001-01W, elevation: 263 m

Current weather observation

The report was made 20 minutes ago, at 15:30 UTC
Wind 3 kt from the Southwest
Temperature 17°C
Humidity 36%
Pressure 1016 hPa
Visibility 10 km or more
no clouds below 1500 m and no cumulonimbus

METAR: LEZG 281530Z 22003KT CAVOK 17/02 Q1016

Time: 16:50 (15:50 UTC)

Forecast

The report was made 4 hours and 50 minutes ago, at 11:00 UTC
Forecast valid from 28 at 12 UTC to 29 at 12 UTC
Wind 9 kt from the West/Northwest
Visibility 10 km or more
Few clouds at a height of 2000 ft
Temporary
from 28 at 14 UTC to 28 at 22 UTC
Wind 7 kt from the Southwest
Becoming
from 29 at 06 UTC to 29 at 09 UTC
Wind 15 kt from the West/Northwest with gusts up to 30 kt

TAF: LEZG 281100Z 2812/2912 29009KT 9999 FEW020 TX18/2814Z TN06/2906Z TEMPO 2814/2822 22007KT BECMG 2906/2909 29015G30KT

Weather observations and forecasts of more than 4000 airports (METAR and TAF reports).

The available stations are represented by yellow and red dots on the map.

Hover mouse over dot to see the name of the station.

Then click to see weather observations and forecasts.

To change the map : click on the green buttons with a black cross to zoom in, on the green button with a dash to zoom out, or on the green arrows for adjacent maps.


METAR-TAF: